sensor_id;sensor_type;location;lat;lon;timestamp;pressure;altitude;pressure_sealevel;temperature;humidity
79540;BME280;68991;52.122;5.406;2023-04-29T00:01:39;101635.09;;;11.48;69.21
79540;BME280;68991;52.122;5.406;2023-04-29T00:04:06;101626.22;;;11.46;69.35
79540;BME280;68991;52.122;5.406;2023-04-29T00:06:33;101637.91;;;11.45;69.66
79540;BME280;68991;52.122;5.406;2023-04-29T00:09:00;101633.50;;;11.44;69.40
79540;BME280;68991;52.122;5.406;2023-04-29T00:11:26;101634.44;;;11.43;69.46
79540;BME280;68991;52.122;5.406;2023-04-29T00:13:53;101635.34;;;11.42;69.44
79540;BME280;68991;52.122;5.406;2023-04-29T00:16:19;101634.47;;;11.41;69.47
79540;BME280;68991;52.122;5.406;2023-04-29T00:18:46;101637.25;;;11.40;69.40
79540;BME280;68991;52.122;5.406;2023-04-29T00:21:13;101641.75;;;11.39;69.58
79540;BME280;68991;52.122;5.406;2023-04-29T00:23:39;101647.19;;;11.38;69.49
79540;BME280;68991;52.122;5.406;2023-04-29T00:26:06;101642.75;;;11.37;69.55
79540;BME280;68991;52.122;5.406;2023-04-29T00:28:32;101646.38;;;11.36;69.52
79540;BME280;68991;52.122;5.406;2023-04-29T00:30:59;101649.06;;;11.36;69.67
79540;BME280;68991;52.122;5.406;2023-04-29T00:33:26;101656.31;;;11.34;69.32
79540;BME280;68991;52.122;5.406;2023-04-29T00:35:52;101660.84;;;11.33;69.58
79540;BME280;68991;52.122;5.406;2023-04-29T00:38:19;101662.72;;;11.31;69.41
79540;BME280;68991;52.122;5.406;2023-04-29T00:40:47;101664.50;;;11.31;69.38
79540;BME280;68991;52.122;5.406;2023-04-29T00:43:13;101661.81;;;11.31;69.62
79540;BME280;68991;52.122;5.406;2023-04-29T00:45:40;101661.91;;;11.29;69.65
79540;BME280;68991;52.122;5.406;2023-04-29T00:48:06;101659.22;;;11.29;69.30
79540;BME280;68991;52.122;5.406;2023-04-29T00:50:33;101659.25;;;11.28;69.23
79540;BME280;68991;52.122;5.406;2023-04-29T00:53:00;101663.84;;;11.26;69.64
79540;BME280;68991;52.122;5.406;2023-04-29T00:55:27;101666.53;;;11.26;69.95
79540;BME280;68991;52.122;5.406;2023-04-29T00:57:54;101664.78;;;11.25;69.38
79540;BME280;68991;52.122;5.406;2023-04-29T01:00:21;101671.06;;;11.24;69.96
79540;BME280;68991;52.122;5.406;2023-04-29T01:02:48;101672.03;;;11.23;69.70
79540;BME280;68991;52.122;5.406;2023-04-29T01:05:15;101681.94;;;11.22;69.48
79540;BME280;68991;52.122;5.406;2023-04-29T01:07:58;101677.47;;;11.21;69.30
79540;BME280;68991;52.122;5.406;2023-04-29T01:11:18;101677.59;;;11.18;70.01
79540;BME280;68991;52.122;5.406;2023-04-29T01:13:29;101681.16;;;11.19;69.46
79540;BME280;68991;52.122;5.406;2023-04-29T01:16:03;101695.53;;;11.18;69.53
79540;BME280;68991;52.122;5.406;2023-04-29T01:18:40;101692.06;;;11.16;69.71
79540;BME280;68991;52.122;5.406;2023-04-29T01:21:08;101697.44;;;11.16;69.84
79540;BME280;68991;52.122;5.406;2023-04-29T01:23:34;101700.16;;;11.14;69.68
79540;BME280;68991;52.122;5.406;2023-04-29T01:26:01;101693.03;;;11.13;69.67
79540;BME280;68991;52.122;5.406;2023-04-29T01:31:24;101700.34;;;11.10;69.22
79540;BME280;68991;52.122;5.406;2023-04-29T01:34:20;101705.78;;;11.08;69.57
79540;BME280;68991;52.122;5.406;2023-04-29T01:37:01;101707.59;;;11.08;69.64
79540;BME280;68991;52.122;5.406;2023-04-29T01:42:29;101707.72;;;11.05;69.74
79540;BME280;68991;52.122;5.406;2023-04-29T01:45:03;101716.69;;;11.05;69.50
79540;BME280;68991;52.122;5.406;2023-04-29T01:47:31;101717.66;;;11.03;69.65
79540;BME280;68991;52.122;5.406;2023-04-29T01:49:58;101713.22;;;11.02;69.53
79540;BME280;68991;52.122;5.406;2023-04-29T01:52:24;101714.16;;;11.01;69.65
79540;BME280;68991;52.122;5.406;2023-04-29T01:54:51;101715.06;;;10.99;69.68
79540;BME280;68991;52.122;5.406;2023-04-29T01:57:18;101715.97;;;11.00;69.92
79540;BME280;68991;52.122;5.406;2023-04-29T01:59:44;101719.56;;;10.99;69.83
79540;BME280;68991;52.122;5.406;2023-04-29T02:02:11;101727.66;;;10.99;69.84
79540;BME280;68991;52.122;5.406;2023-04-29T02:04:40;101726.75;;;10.98;69.50
79540;BME280;68991;52.122;5.406;2023-04-29T02:07:08;101729.53;;;10.97;69.47
79540;BME280;68991;52.122;5.406;2023-04-29T02:09:34;101735.91;;;10.94;69.61
79540;BME280;68991;52.122;5.406;2023-04-29T02:12:01;101731.38;;;10.95;69.61
79540;BME280;68991;52.122;5.406;2023-04-29T02:14:29;101734.16;;;10.93;69.49
79540;BME280;68991;52.122;5.406;2023-04-29T02:16:56;101741.28;;;10.94;69.97
79540;BME280;68991;52.122;5.406;2023-04-29T02:19:23;101740.44;;;10.92;69.16
79540;BME280;68991;52.122;5.406;2023-04-29T02:21:50;101736.00;;;10.91;69.38
79540;BME280;68991;52.122;5.406;2023-04-29T02:24:17;101733.38;;;10.90;69.59
79540;BME280;68991;52.122;5.406;2023-04-29T02:26:43;101745.03;;;10.90;69.65
79540;BME280;68991;52.122;5.406;2023-04-29T02:29:10;101743.25;;;10.89;69.71
79540;BME280;68991;52.122;5.406;2023-04-29T02:31:36;101752.25;;;10.88;69.69
79540;BME280;68991;52.122;5.406;2023-04-29T02:34:03;101747.75;;;10.89;69.60
79540;BME280;68991;52.122;5.406;2023-04-29T02:36:30;101761.28;;;10.87;69.46
79540;BME280;68991;52.122;5.406;2023-04-29T02:38:57;101755.91;;;10.87;69.90
79540;BME280;68991;52.122;5.406;2023-04-29T02:41:23;101760.41;;;10.87;69.75
79540;BME280;68991;52.122;5.406;2023-04-29T02:43:51;101764.88;;;10.86;69.73
79540;BME280;68991;52.122;5.406;2023-04-29T02:46:18;101772.06;;;10.86;69.75
79540;BME280;68991;52.122;5.406;2023-04-29T02:48:44;101772.13;;;10.84;69.89
79540;BME280;68991;52.122;5.406;2023-04-29T02:51:11;101775.75;;;10.83;69.85
79540;BME280;68991;52.122;5.406;2023-04-29T02:53:38;101782.06;;;10.82;69.83
79540;BME280;68991;52.122;5.406;2023-04-29T02:56:04;101779.41;;;10.81;69.61
79540;BME280;68991;52.122;5.406;2023-04-29T02:58:31;101780.38;;;10.80;69.75
79540;BME280;68991;52.122;5.406;2023-04-29T03:00:58;101769.66;;;10.78;69.87
79540;BME280;68991;52.122;5.406;2023-04-29T03:03:25;101777.72;;;10.78;69.54
79540;BME280;68991;52.122;5.406;2023-04-29T03:05:52;101789.41;;;10.77;69.89
79540;BME280;68991;52.122;5.406;2023-04-29T03:08:18;101790.28;;;10.78;69.77
79540;BME280;68991;52.122;5.406;2023-04-29T03:10:45;101789.47;;;10.76;70.06
79540;BME280;68991;52.122;5.406;2023-04-29T03:13:12;101795.75;;;10.76;69.88
79540;BME280;68991;52.122;5.406;2023-04-29T03:15:38;101802.94;;;10.76;69.77
79540;BME280;68991;52.122;5.406;2023-04-29T03:18:05;101802.06;;;10.74;69.64
79540;BME280;68991;52.122;5.406;2023-04-29T03:20:31;101797.59;;;10.74;69.47
79540;BME280;68991;52.122;5.406;2023-04-29T03:22:58;101802.06;;;10.74;69.74
79540;BME280;68991;52.122;5.406;2023-04-29T03:25:26;101803.91;;;10.73;69.66
79540;BME280;68991;52.122;5.406;2023-04-29T03:27:53;101803.03;;;10.73;69.73
79540;BME280;68991;52.122;5.406;2023-04-29T03:30:20;101809.34;;;10.72;69.86
79540;BME280;68991;52.122;5.406;2023-04-29T03:32:47;101807.56;;;10.71;69.76
79540;BME280;68991;52.122;5.406;2023-04-29T03:35:14;101806.69;;;10.70;69.72
79540;BME280;68991;52.122;5.406;2023-04-29T03:37:41;101807.63;;;10.69;69.70
79540;BME280;68991;52.122;5.406;2023-04-29T03:40:10;101810.34;;;10.69;69.79
79540;BME280;68991;52.122;5.406;2023-04-29T03:42:37;101805.88;;;10.68;69.72
79540;BME280;68991;52.122;5.406;2023-04-29T03:45:05;101820.19;;;10.69;69.94
79540;BME280;68991;52.122;5.406;2023-04-29T03:47:32;101815.75;;;10.68;70.11
79540;BME280;68991;52.122;5.406;2023-04-29T03:49:58;101823.88;;;10.66;70.33
79540;BME280;68991;52.122;5.406;2023-04-29T03:52:25;101825.69;;;10.66;69.77
79540;BME280;68991;52.122;5.406;2023-04-29T03:54:52;101824.81;;;10.65;70.05
79540;BME280;68991;52.122;5.406;2023-04-29T03:57:19;101830.19;;;10.65;69.93
79540;BME280;68991;52.122;5.406;2023-04-29T03:59:45;101829.31;;;10.65;69.76
79540;BME280;68991;52.122;5.406;2023-04-29T04:02:16;101829.34;;;10.63;69.48
79540;BME280;68991;52.122;5.406;2023-04-29T04:04:42;101830.28;;;10.62;69.61
79540;BME280;68991;52.122;5.406;2023-04-29T04:07:09;101834.78;;;10.62;69.63
79540;BME280;68991;52.122;5.406;2023-04-29T04:09:37;101836.59;;;10.61;69.62
79540;BME280;68991;52.122;5.406;2023-04-29T04:12:04;101835.72;;;10.61;69.45
79540;BME280;68991;52.122;5.406;2023-04-29T04:14:31;101841.16;;;10.59;69.82
79540;BME280;68991;52.122;5.406;2023-04-29T04:16:58;101838.47;;;10.59;69.61
79540;BME280;68991;52.122;5.406;2023-04-29T04:19:25;101849.25;;;10.58;69.86
79540;BME280;68991;52.122;5.406;2023-04-29T04:21:52;101836.75;;;10.57;69.83
79540;BME280;68991;52.122;5.406;2023-04-29T04:24:18;101851.97;;;10.56;69.83
79540;BME280;68991;52.122;5.406;2023-04-29T04:26:45;101853.84;;;10.54;69.54
79540;BME280;68991;52.122;5.406;2023-04-29T04:29:12;101852.97;;;10.54;69.90
79540;BME280;68991;52.122;5.406;2023-04-29T04:31:38;101844.91;;;10.54;69.86
79540;BME280;68991;52.122;5.406;2023-04-29T04:34:05;101855.72;;;10.52;69.76
79540;BME280;68991;52.122;5.406;2023-04-29T04:36:32;101858.41;;;10.52;70.21
79540;BME280;68991;52.122;5.406;2023-04-29T04:38:58;101855.72;;;10.52;70.37
79540;BME280;68991;52.122;5.406;2023-04-29T04:41:25;101858.47;;;10.51;70.11
79540;BME280;68991;52.122;5.406;2023-04-29T04:43:52;101865.59;;;10.52;69.78
79540;BME280;68991;52.122;5.406;2023-04-29T04:46:18;101868.31;;;10.50;70.21
79540;BME280;68991;52.122;5.406;2023-04-29T04:48:45;101873.69;;;10.50;69.97
79540;BME280;68991;52.122;5.406;2023-04-29T04:51:12;101879.09;;;10.50;70.21
79540;BME280;68991;52.122;5.406;2023-04-29T04:53:39;101891.63;;;10.49;70.08
79540;BME280;68991;52.122;5.406;2023-04-29T04:56:06;101891.63;;;10.49;69.62
79540;BME280;68991;52.122;5.406;2023-04-29T04:58:33;101889.94;;;10.47;70.06
79540;BME280;68991;52.122;5.406;2023-04-29T05:01:01;101897.97;;;10.48;70.33
79540;BME280;68991;52.122;5.406;2023-04-29T05:03:28;101902.47;;;10.48;69.99
79540;BME280;68991;52.122;5.406;2023-04-29T05:05:56;101908.72;;;10.48;70.12
79540;BME280;68991;52.122;5.406;2023-04-29T05:08:23;101907.84;;;10.48;70.07
79540;BME280;68991;52.122;5.406;2023-04-29T05:10:49;101913.22;;;10.48;70.28
79540;BME280;68991;52.122;5.406;2023-04-29T05:13:17;101911.44;;;10.47;70.12
79540;BME280;68991;52.122;5.406;2023-04-29T05:15:44;101913.22;;;10.48;70.09
79540;BME280;68991;52.122;5.406;2023-04-29T05:18:11;101910.56;;;10.46;70.29
79540;BME280;68991;52.122;5.406;2023-04-29T05:20:37;101916.84;;;10.45;69.88
79540;BME280;68991;52.122;5.406;2023-04-29T05:23:04;101921.31;;;10.46;70.02
79540;BME280;68991;52.122;5.406;2023-04-29T05:25:31;101918.63;;;10.46;70.17
79540;BME280;68991;52.122;5.406;2023-04-29T05:27:58;101926.69;;;10.46;70.35
79540;BME280;68991;52.122;5.406;2023-04-29T05:30:24;101926.69;;;10.46;70.14
79540;BME280;68991;52.122;5.406;2023-04-29T05:32:51;101923.97;;;10.48;70.01
79540;BME280;68991;52.122;5.406;2023-04-29T05:35:18;101932.94;;;10.47;70.25
79540;BME280;68991;52.122;5.406;2023-04-29T05:37:44;101935.59;;;10.48;70.18
79540;BME280;68991;52.122;5.406;2023-04-29T05:40:11;101944.50;;;10.49;69.99
79540;BME280;68991;52.122;5.406;2023-04-29T05:42:38;101934.72;;;10.48;70.31
79540;BME280;68991;52.122;5.406;2023-04-29T05:45:05;101939.13;;;10.49;70.60
79540;BME280;68991;52.122;5.406;2023-04-29T05:47:32;101947.19;;;10.49;70.32
79540;BME280;68991;52.122;5.406;2023-04-29T05:49:58;101942.72;;;10.49;70.15
79540;BME280;68991;52.122;5.406;2023-04-29T05:52:25;101948.97;;;10.50;70.23
79540;BME280;68991;52.122;5.406;2023-04-29T05:54:51;101953.44;;;10.51;70.35
79540;BME280;68991;52.122;5.406;2023-04-29T05:57:18;101951.63;;;10.52;70.52
79540;BME280;68991;52.122;5.406;2023-04-29T05:59:44;101951.56;;;10.53;70.78
79540;BME280;68991;52.122;5.406;2023-04-29T06:02:11;101959.59;;;10.55;70.64
79540;BME280;68991;52.122;5.406;2023-04-29T06:04:38;101966.66;;;10.57;70.50
79540;BME280;68991;52.122;5.406;2023-04-29T06:07:07;101963.06;;;10.58;70.62
79540;BME280;68991;52.122;5.406;2023-04-29T06:09:35;101976.41;;;10.61;70.81
79540;BME280;68991;52.122;5.406;2023-04-29T06:12:02;101985.28;;;10.63;70.79
79540;BME280;68991;52.122;5.406;2023-04-29T06:14:29;101980.75;;;10.65;70.45
79540;BME280;68991;52.122;5.406;2023-04-29T06:16:56;101984.25;;;10.67;70.71
79540;BME280;68991;52.122;5.406;2023-04-29T06:19:22;101991.31;;;10.71;70.84
79540;BME280;68991;52.122;5.406;2023-04-29T06:21:50;101995.69;;;10.74;71.05
79540;BME280;68991;52.122;5.406;2023-04-29T06:24:17;101996.53;;;10.76;70.86
79540;BME280;68991;52.122;5.406;2023-04-29T06:26:44;101993.75;;;10.79;71.14
79540;BME280;68991;52.122;5.406;2023-04-29T06:29:10;101991.03;;;10.80;70.77
79540;BME280;68991;52.122;5.406;2023-04-29T06:31:37;102002.56;;;10.84;70.92
79540;BME280;68991;52.122;5.406;2023-04-29T06:34:04;102003.34;;;10.87;71.05
79540;BME280;68991;52.122;5.406;2023-04-29T06:36:31;102005.97;;;10.89;71.26
79540;BME280;68991;52.122;5.406;2023-04-29T06:38:58;102008.63;;;10.90;71.28
79540;BME280;68991;52.122;5.406;2023-04-29T06:41:53;102014.78;;;10.94;71.01
79540;BME280;68991;52.122;5.406;2023-04-29T06:44:35;102020.97;;;10.96;71.06
79540;BME280;68991;52.122;5.406;2023-04-29T06:47:25;102030.75;;;10.98;71.25
79540;BME280;68991;52.122;5.406;2023-04-29T06:49:54;102036.09;;;11.00;71.20
79540;BME280;68991;52.122;5.406;2023-04-29T06:52:21;102041.44;;;11.02;71.16
79540;BME280;68991;52.122;5.406;2023-04-29T06:54:48;102042.25;;;11.04;71.48
79540;BME280;68991;52.122;5.406;2023-04-29T06:57:17;102036.84;;;11.05;71.29
79540;BME280;68991;52.122;5.406;2023-04-29T06:59:43;102040.38;;;11.06;71.31
79540;BME280;68991;52.122;5.406;2023-04-29T07:02:10;102050.19;;;11.08;71.64
79540;BME280;68991;52.122;5.406;2023-04-29T07:04:37;102043.84;;;11.09;71.30
79540;BME280;68991;52.122;5.406;2023-04-29T07:07:03;102054.56;;;11.11;71.25
79540;BME280;68991;52.122;5.406;2023-04-29T07:09:30;102060.78;;;11.13;71.20
79540;BME280;68991;52.122;5.406;2023-04-29T07:11:57;102059.84;;;11.14;71.69
79540;BME280;68991;52.122;5.406;2023-04-29T07:14:23;102064.31;;;11.15;71.57
79540;BME280;68991;52.122;5.406;2023-04-29T07:20:54;102073.97;;;11.20;71.27
79540;BME280;68991;52.122;5.406;2023-04-29T07:23:25;102073.94;;;11.22;71.46
79540;BME280;68991;52.122;5.406;2023-04-29T07:25:52;102081.94;;;11.23;71.33
79540;BME280;68991;52.122;5.406;2023-04-29T07:28:18;102084.59;;;11.25;71.63
79540;BME280;68991;52.122;5.406;2023-04-29T07:30:45;102087.25;;;11.26;71.80
79540;BME280;68991;52.122;5.406;2023-04-29T07:33:11;102083.63;;;11.27;72.01
79540;BME280;68991;52.122;5.406;2023-04-29T07:35:38;102085.34;;;11.30;71.71
79540;BME280;68991;52.122;5.406;2023-04-29T07:38:07;102092.44;;;11.32;71.80
79540;BME280;68991;52.122;5.406;2023-04-29T07:40:35;102089.66;;;11.34;71.83
79540;BME280;68991;52.122;5.406;2023-04-29T07:43:02;102098.59;;;11.36;71.76
79540;BME280;68991;52.122;5.406;2023-04-29T07:45:31;102096.72;;;11.38;71.40
79540;BME280;68991;52.122;5.406;2023-04-29T07:47:57;102091.28;;;11.39;71.98
79540;BME280;68991;52.122;5.406;2023-04-29T07:50:24;102100.16;;;11.43;71.84
79540;BME280;68991;52.122;5.406;2023-04-29T07:53:10;102108.13;;;11.46;71.23
79540;BME280;68991;52.122;5.406;2023-04-29T07:55:39;102107.13;;;11.48;71.28
79540;BME280;68991;52.122;5.406;2023-04-29T07:58:06;102113.28;;;11.52;71.36
79540;BME280;68991;52.122;5.406;2023-04-29T08:00:33;102109.66;;;11.55;71.37
79540;BME280;68991;52.122;5.406;2023-04-29T08:02:59;102100.56;;;11.57;71.57
79540;BME280;68991;52.122;5.406;2023-04-29T08:05:27;102111.25;;;11.60;71.46
79540;BME280;68991;52.122;5.406;2023-04-29T08:07:56;102119.22;;;11.63;71.37
79540;BME280;68991;52.122;5.406;2023-04-29T08:10:22;102113.72;;;11.66;70.83
79540;BME280;68991;52.122;5.406;2023-04-29T08:12:49;102116.28;;;11.69;71.27
79540;BME280;68991;52.122;5.406;2023-04-29T08:15:16;102125.19;;;11.73;71.13
79540;BME280;68991;52.122;5.406;2023-04-29T08:17:43;102131.34;;;11.76;71.46
79540;BME280;68991;52.122;5.406;2023-04-29T08:20:10;102130.31;;;11.80;71.03
79540;BME280;68991;52.122;5.406;2023-04-29T08:22:37;102132.91;;;11.83;71.49
79540;BME280;68991;52.122;5.406;2023-04-29T08:25:03;102131.88;;;11.87;71.43
79540;BME280;68991;52.122;5.406;2023-04-29T08:27:31;102130.84;;;11.91;71.39
79540;BME280;68991;52.122;5.406;2023-04-29T08:29:57;102126.22;;;11.95;71.32
79540;BME280;68991;52.122;5.406;2023-04-29T08:32:27;102129.69;;;11.98;71.61
79540;BME280;68991;52.122;5.406;2023-04-29T08:34:54;102142.13;;;12.03;70.87
79540;BME280;68991;52.122;5.406;2023-04-29T08:41:13;102137.13;;;12.17;71.26
79540;BME280;68991;52.122;5.406;2023-04-29T08:47:14;102147.56;;;12.26;70.04
79540;BME280;68991;52.122;5.406;2023-04-29T08:49:41;102141.13;;;12.30;70.71
79540;BME280;68991;52.122;5.406;2023-04-29T08:52:08;102138.28;;;12.34;70.38
79540;BME280;68991;52.122;5.406;2023-04-29T08:54:34;102137.16;;;12.40;70.35
79540;BME280;68991;52.122;5.406;2023-04-29T08:57:02;102144.19;;;12.44;70.58
79540;BME280;68991;52.122;5.406;2023-04-29T08:59:31;102144.94;;;12.49;70.01
79540;BME280;68991;52.122;5.406;2023-04-29T09:01:58;102157.25;;;12.56;70.00
79540;BME280;68991;52.122;5.406;2023-04-29T09:04:36;102149.84;;;12.61;70.42
79540;BME280;68991;52.122;5.406;2023-04-29T09:07:07;102151.50;;;12.65;69.79
79540;BME280;68991;52.122;5.406;2023-04-29T09:09:36;102147.75;;;12.69;69.66
79540;BME280;68991;52.122;5.406;2023-04-29T09:12:05;102161.06;;;12.74;69.76
79540;BME280;68991;52.122;5.406;2023-04-29T09:14:32;102160.03;;;12.78;69.82
79540;BME280;68991;52.122;5.406;2023-04-29T09:16:59;102164.31;;;12.83;70.01
79540;BME280;68991;52.122;5.406;2023-04-29T09:19:33;102157.84;;;12.87;69.69
79540;BME280;68991;52.122;5.406;2023-04-29T09:22:02;102164.84;;;12.93;69.64
79540;BME280;68991;52.122;5.406;2023-04-29T09:24:30;102173.59;;;13.00;69.88
79540;BME280;68991;52.122;5.406;2023-04-29T09:26:58;102174.28;;;13.05;70.28
79540;BME280;68991;52.122;5.406;2023-04-29T09:29:25;102169.63;;;13.10;69.57
79540;BME280;68991;52.122;5.406;2023-04-29T09:31:52;102176.66;;;13.14;69.75
79540;BME280;68991;52.122;5.406;2023-04-29T09:34:34;102185.44;;;13.19;69.93
79540;BME280;68991;52.122;5.406;2023-04-29T09:37:03;102181.69;;;13.23;69.29
79540;BME280;68991;52.122;5.406;2023-04-29T09:39:48;102182.31;;;13.29;70.24
79540;BME280;68991;52.122;5.406;2023-04-29T09:42:15;102175.88;;;13.33;70.33
79540;BME280;68991;52.122;5.406;2023-04-29T09:44:42;102181.09;;;13.38;69.86
79540;BME280;68991;52.122;5.406;2023-04-29T09:47:09;102182.59;;;13.45;70.02
79540;BME280;68991;52.122;5.406;2023-04-29T09:49:41;102191.34;;;13.52;69.56
79540;BME280;68991;52.122;5.406;2023-04-29T09:52:11;102186.63;;;13.57;68.18
79540;BME280;68991;52.122;5.406;2023-04-29T09:54:48;102193.88;;;13.56;67.82
79540;BME280;68991;52.122;5.406;2023-04-29T09:57:20;102194.53;;;13.61;68.29
79540;BME280;68991;52.122;5.406;2023-04-29T10:10:55;102187.47;;;14.01;68.86
79540;BME280;68991;52.122;5.406;2023-04-29T10:13:32;102190.00;;;14.05;68.61
79540;BME280;68991;52.122;5.406;2023-04-29T10:18:54;102193.03;;;14.18;68.22
79540;BME280;68991;52.122;5.406;2023-04-29T10:21:43;102194.63;;;14.23;68.07
79540;BME280;68991;52.122;5.406;2023-04-29T10:24:27;102192.50;;;14.30;67.82
79540;BME280;68991;52.122;5.406;2023-04-29T10:27:05;102189.56;;;14.36;68.43
79540;BME280;68991;52.122;5.406;2023-04-29T10:29:43;102193.84;;;14.41;67.15
79540;BME280;68991;52.122;5.406;2023-04-29T10:32:28;102199.78;;;14.50;67.70
79540;BME280;68991;52.122;5.406;2023-04-29T10:35:10;102198.66;;;14.55;68.24
79540;BME280;68991;52.122;5.406;2023-04-29T10:37:41;102192.06;;;14.61;66.90
79540;BME280;68991;52.122;5.406;2023-04-29T10:42:55;102196.19;;;14.69;66.53
79540;BME280;68991;52.122;5.406;2023-04-29T10:45:30;102198.63;;;14.75;66.69
79540;BME280;68991;52.122;5.406;2023-04-29T10:53:14;102199.81;;;14.88;66.00
79540;BME280;68991;52.122;5.406;2023-04-29T10:55:45;102198.56;;;14.95;66.40
79540;BME280;68991;52.122;5.406;2023-04-29T10:58:44;102199.25;;;15.01;66.32
79540;BME280;68991;52.122;5.406;2023-04-29T11:01:15;102201.66;;;15.07;65.81
79540;BME280;68991;52.122;5.406;2023-04-29T11:03:50;102196.09;;;15.10;65.44
79540;BME280;68991;52.122;5.406;2023-04-29T11:09:03;102199.28;;;15.19;65.75
79540;BME280;68991;52.122;5.406;2023-04-29T11:14:25;102196.06;;;15.30;65.12
79540;BME280;68991;52.122;5.406;2023-04-29T11:16:55;102195.91;;;15.33;64.60
79540;BME280;68991;52.122;5.406;2023-04-29T11:19:24;102199.41;;;15.35;63.79
79540;BME280;68991;52.122;5.406;2023-04-29T11:22:07;102201.06;;;15.37;64.50
79540;BME280;68991;52.122;5.406;2023-04-29T11:24:35;102202.69;;;15.41;63.79
79540;BME280;68991;52.122;5.406;2023-04-29T11:27:04;102207.91;;;15.46;64.53
79540;BME280;68991;52.122;5.406;2023-04-29T11:29:32;102197.75;;;15.51;64.00
79540;BME280;68991;52.122;5.406;2023-04-29T11:32:14;102201.09;;;15.56;64.37
79540;BME280;68991;52.122;5.406;2023-04-29T11:35:06;102197.25;;;15.62;63.77
79540;BME280;68991;52.122;5.406;2023-04-29T11:37:34;102201.47;;;15.67;63.30
79540;BME280;68991;52.122;5.406;2023-04-29T11:40:08;102204.84;;;15.72;63.72
79540;BME280;68991;52.122;5.406;2023-04-29T11:42:48;102205.56;;;15.76;63.61
79540;BME280;68991;52.122;5.406;2023-04-29T11:45:34;102195.44;;;15.79;63.47
79540;BME280;68991;52.122;5.406;2023-04-29T11:48:04;102196.09;;;15.84;63.65
79540;BME280;68991;52.122;5.406;2023-04-29T11:50:31;102202.94;;;15.91;63.73
79540;BME280;68991;52.122;5.406;2023-04-29T11:52:59;102194.66;;;15.94;62.63
79540;BME280;68991;52.122;5.406;2023-04-29T11:55:39;102189.97;;;15.98;62.75
79540;BME280;68991;52.122;5.406;2023-04-29T11:58:11;102192.53;;;16.01;62.66
79540;BME280;68991;52.122;5.406;2023-04-29T12:01:03;102197.81;;;16.04;62.01
79540;BME280;68991;52.122;5.406;2023-04-29T12:03:32;102200.25;;;16.09;62.05
79540;BME280;68991;52.122;5.406;2023-04-29T12:06:01;102197.25;;;16.15;62.46
79540;BME280;68991;52.122;5.406;2023-04-29T12:08:33;102196.03;;;16.20;62.07
79540;BME280;68991;52.122;5.406;2023-04-29T12:11:00;102206.50;;;16.28;63.42
79540;BME280;68991;52.122;5.406;2023-04-29T12:13:30;102195.31;;;16.34;62.53
79540;BME280;68991;52.122;5.406;2023-04-29T12:15:58;102197.75;;;16.40;62.19
79540;BME280;68991;52.122;5.406;2023-04-29T12:18:25;102199.31;;;16.44;62.08
79540;BME280;68991;52.122;5.406;2023-04-29T12:20:53;102190.06;;;16.48;61.87
79540;BME280;68991;52.122;5.406;2023-04-29T12:23:23;102195.19;;;16.54;62.65
79540;BME280;68991;52.122;5.406;2023-04-29T12:25:57;102198.53;;;16.59;62.27
79540;BME280;68991;52.122;5.406;2023-04-29T12:28:24;102189.28;;;16.63;62.23
79540;BME280;68991;52.122;5.406;2023-04-29T12:30:52;102190.00;;;16.67;61.76
79540;BME280;68991;52.122;5.406;2023-04-29T12:33:22;102195.34;;;16.68;61.36
79540;BME280;68991;52.122;5.406;2023-04-29T12:35:51;102192.47;;;16.71;61.43
79540;BME280;68991;52.122;5.406;2023-04-29T12:38:22;102190.38;;;16.76;61.44
79540;BME280;68991;52.122;5.406;2023-04-29T12:40:48;102195.50;;;16.82;61.83
79540;BME280;68991;52.122;5.406;2023-04-29T12:43:16;102196.19;;;16.86;61.45
79540;BME280;68991;52.122;5.406;2023-04-29T12:45:44;102192.25;;;16.91;61.31
79540;BME280;68991;52.122;5.406;2023-04-29T12:48:11;102201.81;;;16.99;61.64
79540;BME280;68991;52.122;5.406;2023-04-29T12:50:54;102206.84;;;17.06;61.12
79540;BME280;68991;52.122;5.406;2023-04-29T12:53:23;102210.28;;;17.10;60.52
79540;BME280;68991;52.122;5.406;2023-04-29T12:55:51;102207.19;;;17.16;60.39
79540;BME280;68991;52.122;5.406;2023-04-29T12:58:18;102205.91;;;17.23;61.54
79540;BME280;68991;52.122;5.406;2023-04-29T13:00:44;102209.06;;;17.31;61.46
79540;BME280;68991;52.122;5.406;2023-04-29T13:03:11;102214.34;;;17.34;61.11
79540;BME280;68991;52.122;5.406;2023-04-29T13:05:38;102210.50;;;17.38;62.09
79540;BME280;68991;52.122;5.406;2023-04-29T13:08:06;102201.28;;;17.40;61.20
79540;BME280;68991;52.122;5.406;2023-04-29T13:10:34;102210.13;;;17.44;60.42
79540;BME280;68991;52.122;5.406;2023-04-29T13:13:00;102212.50;;;17.50;61.16
79540;BME280;68991;52.122;5.406;2023-04-29T13:15:27;102213.09;;;17.57;61.86
79540;BME280;68991;52.122;5.406;2023-04-29T13:17:54;102210.88;;;17.63;62.15
79540;BME280;68991;52.122;5.406;2023-04-29T13:28:10;102222.72;;;17.78;60.44
79540;BME280;68991;52.122;5.406;2023-04-29T13:30:41;102218.94;;;17.80;60.15
79540;BME280;68991;52.122;5.406;2023-04-29T13:33:31;102210.53;;;17.85;60.20
79540;BME280;68991;52.122;5.406;2023-04-29T13:36:21;102217.25;;;17.94;60.90
79540;BME280;68991;52.122;5.406;2023-04-29T13:39:11;102223.31;;;17.99;60.73
79540;BME280;68991;52.122;5.406;2023-04-29T13:41:48;102227.50;;;18.04;61.16
79540;BME280;68991;52.122;5.406;2023-04-29T13:44:15;102223.56;;;18.10;61.05
79540;BME280;68991;52.122;5.406;2023-04-29T13:46:56;102227.88;;;18.14;59.36
79540;BME280;68991;52.122;5.406;2023-04-29T13:49:23;102231.34;;;18.16;58.24
79540;BME280;68991;52.122;5.406;2023-04-29T13:52:10;102234.00;;;18.17;60.01
79540;BME280;68991;52.122;5.406;2023-04-29T13:54:39;102220.22;;;18.20;60.69